createdAt,value
2019-04-21T11:09:44.604Z,8.50
2019-04-21T11:12:15.839Z,6.50
2019-04-21T11:14:47.863Z,6.80
2019-04-21T11:17:19.547Z,7.92
2019-04-21T11:19:50.747Z,6.45
2019-04-21T11:22:22.980Z,4.90
2019-04-21T11:24:56.693Z,7.70
2019-04-21T11:27:29.160Z,6.22
2019-04-21T11:30:00.316Z,7.33
2019-04-21T11:32:32.748Z,6.80
2019-04-21T11:35:05.321Z,5.70
2019-04-21T11:37:38.099Z,7.12
2019-04-21T11:40:14.028Z,6.53
2019-04-21T11:42:43.930Z,6.05
2019-04-21T11:45:36.633Z,6.10
2019-04-21T11:48:16.607Z,6.83
2019-04-21T11:50:48.842Z,5.30
2019-04-21T11:53:23.083Z,8.98
2019-04-21T11:55:58.628Z,8.53
2019-04-21T11:58:34.066Z,4.60
2019-04-21T12:01:07.540Z,5.40
2019-04-21T12:03:39.951Z,7.45
2019-04-21T12:06:11.507Z,7.97
2019-04-21T12:08:47.322Z,5.30
2019-04-21T12:11:15.877Z,4.28
2019-04-21T12:13:47.978Z,7.20
2019-04-21T12:16:19.304Z,5.28
2019-04-21T12:18:50.991Z,5.97
2019-04-21T12:21:23.436Z,8.05
2019-04-21T12:23:56.601Z,5.17
2019-04-21T12:26:28.324Z,3.62
2019-04-21T12:28:59.746Z,7.65
2019-04-21T12:31:39.274Z,5.55
2019-04-21T12:34:12.133Z,7.47
2019-04-21T12:36:43.760Z,8.80
2019-04-21T12:39:16.765Z,5.67
2019-04-21T12:41:48.888Z,5.13
2019-04-21T12:44:20.580Z,6.12
2019-04-21T12:46:51.981Z,6.60
2019-04-21T12:49:25.515Z,6.85
2019-04-21T12:51:57.693Z,7.78
2019-04-21T12:54:29.829Z,4.27
2019-04-21T12:57:01.289Z,6.03
2019-04-21T12:59:35.883Z,4.73
2019-04-21T13:02:09.713Z,5.03
2019-04-21T13:04:42.047Z,6.95
2019-04-21T13:07:13.456Z,7.42
2019-04-21T13:09:44.626Z,6.45
2019-04-21T13:12:15.767Z,6.10
2019-04-21T13:14:47.475Z,4.20
2019-04-21T13:17:19.473Z,5.97
2019-04-21T13:19:51.544Z,5.40
2019-04-21T13:22:23.711Z,5.27
2019-04-21T13:24:55.834Z,5.97
2019-04-21T13:27:27.247Z,6.03
2019-04-21T13:29:59.977Z,4.25
2019-04-21T13:32:31.279Z,8.73
2019-04-21T13:35:03.308Z,5.75
2019-04-21T13:37:35.315Z,6.12
2019-04-21T13:40:34.164Z,6.60
2019-04-21T13:42:54.754Z,6.55
2019-04-21T13:45:23.862Z,5.67
2019-04-21T13:47:56.632Z,8.65
2019-04-21T13:50:29.063Z,5.67
2019-04-21T13:53:00.664Z,6.55
2019-04-21T13:55:32.123Z,7.17
2019-04-21T13:58:04.305Z,7.05
2019-04-21T14:00:35.909Z,7.70
2019-04-21T14:03:07.234Z,8.55
2019-04-21T14:05:38.357Z,6.55
2019-04-21T14:08:11.187Z,9.25
2019-04-21T14:10:43.953Z,7.37
2019-04-21T14:13:16.474Z,7.87
2019-04-21T14:15:48.827Z,9.60
2019-04-21T14:18:20.746Z,9.33
2019-04-21T14:20:55.481Z,6.37
2019-04-21T14:23:34.495Z,6.60
2019-04-21T14:26:03.872Z,7.10
2019-04-21T14:28:38.897Z,10.60
2019-04-21T14:31:10.580Z,6.65
2019-04-21T14:33:41.820Z,7.58
2019-04-21T14:36:14.734Z,6.27
2019-04-21T14:38:46.932Z,7.47
2019-04-21T14:41:18.227Z,9.55
2019-04-21T14:43:50.158Z,7.80
2019-04-21T14:46:26.937Z,6.15
2019-04-21T14:49:03.620Z,10.13
2019-04-21T14:51:41.002Z,9.33
2019-04-21T14:54:15.175Z,8.63
2019-04-21T14:56:47.288Z,7.15
2019-04-21T14:59:19.641Z,10.10
2019-04-21T15:01:51.796Z,9.60
2019-04-21T15:04:26.268Z,7.90
2019-04-21T15:06:59.203Z,6.60
2019-04-21T15:09:31.482Z,7.60
2019-04-21T15:12:02.916Z,9.10
2019-04-21T15:14:34.016Z,8.03
2019-04-21T15:17:05.175Z,7.90
2019-04-21T15:19:36.419Z,11.80
2019-04-21T15:22:08.635Z,8.83
2019-04-21T15:24:40.404Z,7.33
2019-04-21T15:27:12.778Z,8.00
2019-04-21T15:29:44.868Z,9.28
2019-04-21T15:32:16.866Z,6.30
2019-04-21T15:34:48.355Z,9.58
2019-04-21T15:37:19.990Z,8.50
2019-04-21T15:39:52.997Z,7.15
2019-04-21T15:42:24.399Z,8.28
2019-04-21T15:44:56.789Z,9.28
2019-04-21T15:47:28.311Z,8.48
2019-04-21T15:50:06.594Z,11.12
2019-04-21T15:52:33.769Z,8.23
2019-04-21T15:55:14.783Z,8.83
2019-04-21T15:57:50.622Z,7.22
2019-04-21T16:00:24.575Z,9.13
2019-04-21T16:02:56.141Z,10.43
2019-04-21T16:05:28.505Z,7.35
2019-04-21T16:08:00.334Z,6.70
2019-04-21T16:10:43.012Z,9.08
2019-04-21T16:13:05.748Z,10.15
2019-04-21T16:15:38.401Z,9.03
2019-04-21T16:18:10.088Z,7.92
2019-04-21T16:20:41.875Z,8.45
2019-04-21T16:23:14.785Z,6.95
2019-04-21T16:25:46.593Z,8.50
2019-04-21T16:28:17.810Z,11.40
2019-04-21T16:30:48.940Z,7.63
2019-04-21T16:33:21.005Z,9.20
2019-04-21T16:35:53.672Z,13.60
2019-04-21T16:38:25.833Z,11.65
2019-04-21T16:41:01.076Z,10.70
2019-04-21T16:43:31.131Z,9.98
2019-04-21T16:46:02.441Z,12.15
2019-04-21T16:48:33.845Z,11.95
2019-04-21T16:51:05.727Z,9.75
2019-04-21T16:53:41.845Z,9.48
2019-04-21T16:56:15.303Z,10.05
2019-04-21T16:58:48.518Z,14.17
2019-04-21T17:01:25.704Z,8.63
2019-04-21T17:03:58.268Z,10.00
2019-04-21T17:06:31.050Z,12.25
2019-04-21T17:09:03.003Z,13.95
2019-04-21T17:11:39.221Z,10.18
2019-04-21T17:16:24.409Z,9.65
2019-04-21T17:17:03.231Z,12.80
2019-04-21T17:19:21.940Z,14.07
2019-04-21T17:21:47.909Z,15.38
2019-04-21T17:24:20.170Z,14.95
2019-04-21T17:26:51.577Z,15.77
2019-04-21T17:29:22.862Z,15.38
2019-04-21T17:31:55.277Z,14.43
2019-04-21T17:34:28.844Z,10.63
2019-04-21T17:37:01.014Z,11.50
2019-04-21T17:39:32.671Z,15.70
2019-04-21T17:42:16.770Z,21.23
2019-04-21T17:44:37.361Z,11.12
2019-04-21T17:47:21.793Z,13.45
2019-04-21T17:49:43.158Z,10.72
2019-04-21T17:52:40.161Z,11.33
2019-04-21T17:55:16.851Z,10.45
2019-04-21T17:58:00.850Z,13.68
2019-04-21T18:00:57.797Z,10.50
2019-04-21T18:03:18.346Z,11.38
2019-04-21T18:05:43.545Z,13.15
2019-04-21T18:08:21.447Z,10.72
2019-04-21T18:10:45.791Z,11.75
2019-04-21T18:13:08.594Z,13.43
2019-04-21T18:15:52.377Z,11.88
2019-04-21T18:18:10.326Z,12.93
2019-04-21T18:20:53.716Z,10.45
2019-04-21T18:23:39.497Z,11.90
2019-04-21T18:26:07.471Z,11.20
2019-04-21T18:28:32.806Z,13.40
2019-04-21T18:31:12.319Z,9.53
2019-04-21T18:33:46.185Z,12.33
2019-04-21T18:36:29.277Z,11.40
2019-04-21T18:39:12.308Z,12.65
2019-04-21T18:41:34.469Z,11.85
2019-04-21T18:44:34.501Z,11.83
2019-04-21T18:47:20.011Z,10.95
2019-04-21T18:49:44.080Z,12.70
2019-04-21T18:52:26.918Z,9.48
2019-04-21T18:55:08.087Z,13.43
2019-04-21T18:57:34.475Z,12.43
2019-04-21T18:59:57.598Z,11.22
2019-04-21T19:02:38.409Z,10.08
2019-04-21T19:05:09.885Z,11.27
2019-04-21T19:07:58.315Z,11.50
2019-04-21T19:10:42.556Z,10.70
2019-04-21T19:15:30.010Z,13.62
2019-04-21T19:20:39.447Z,14.13
2019-04-21T19:23:11.647Z,17.15
2019-04-21T19:25:47.412Z,14.60
2019-04-21T19:28:16.413Z,11.90
2019-04-21T19:31:05.145Z,20.15
2019-04-21T19:33:18.759Z,19.60
2019-04-21T19:35:39.352Z,18.80
2019-04-21T19:38:13.798Z,21.53
2019-04-21T19:40:56.516Z,23.47
2019-04-21T19:43:41.644Z,18.23
2019-04-21T19:46:11.597Z,23.00
2019-04-21T19:48:44.694Z,20.35
2019-04-21T19:51:10.570Z,19.75
2019-04-21T19:53:42.146Z,17.40
2019-04-21T19:56:01.962Z,16.93
2019-04-21T19:58:38.168Z,24.25
2019-04-21T20:01:07.600Z,20.75
2019-04-21T20:03:43.181Z,20.82
2019-04-21T20:06:28.807Z,22.77
2019-04-21T20:09:07.017Z,26.62
2019-04-21T20:11:33.552Z,20.43
2019-04-21T20:14:37.668Z,19.52
2019-04-21T20:16:44.347Z,23.92
2019-04-21T20:19:03.006Z,23.25
2019-04-21T20:21:31.133Z,21.37
2019-04-21T20:24:09.686Z,20.80
2019-04-21T20:26:41.617Z,21.33
2019-04-21T20:29:27.702Z,21.85
2019-04-21T20:31:55.111Z,18.80
2019-04-21T20:34:33.609Z,17.35
2019-04-21T20:37:07.722Z,18.62
2019-04-21T20:39:24.188Z,19.43
2019-04-21T20:42:08.646Z,18.07
2019-04-21T20:44:43.801Z,17.70
2019-04-21T20:47:11.289Z,20.20
2019-04-21T20:49:41.490Z,18.73
2019-04-21T20:52:30.706Z,20.12
2019-04-21T20:54:59.031Z,14.43
2019-04-21T20:57:26.402Z,18.07
2019-04-21T21:00:03.413Z,18.30
2019-04-21T21:02:41.172Z,16.37
2019-04-21T21:04:59.010Z,19.62
2019-04-21T21:07:44.105Z,14.63
2019-04-21T21:10:10.961Z,18.98
2019-04-21T21:12:49.087Z,17.35
2019-04-21T21:15:11.397Z,18.73
2019-04-21T21:18:01.422Z,16.82
2019-04-21T21:20:24.639Z,18.52
2019-04-21T21:22:50.611Z,16.35
2019-04-21T21:25:41.856Z,15.37
2019-04-21T21:27:57.192Z,16.70
2019-04-21T21:30:32.350Z,18.10
2019-04-21T21:33:15.367Z,18.27
2019-04-21T21:35:38.324Z,16.45
2019-04-21T21:38:23.994Z,15.90
2019-04-21T21:40:45.580Z,17.35
2019-04-21T21:43:09.246Z,15.03
2019-04-21T21:45:42.356Z,19.13
2019-04-21T21:48:26.402Z,16.03
2019-04-21T21:50:54.267Z,18.02
2019-04-21T21:53:21.557Z,18.45
2019-04-21T21:55:49.108Z,13.95
2019-04-21T21:58:26.455Z,10.60
2019-04-21T22:00:58.415Z,12.50
2019-04-21T22:03:33.530Z,14.97
2019-04-21T22:06:06.231Z,12.15
2019-04-21T22:08:34.375Z,11.22
2019-04-21T22:11:07.209Z,12.82
2019-04-21T22:13:49.090Z,15.58
2019-04-21T22:16:14.467Z,13.77
2019-04-21T22:19:04.690Z,12.85
2019-04-21T22:21:36.444Z,15.58
2019-04-21T22:23:58.077Z,15.38
2019-04-21T22:26:23.571Z,16.07
2019-04-21T22:28:55.847Z,12.73
2019-04-21T22:31:31.558Z,14.15
2019-04-21T22:34:05.418Z,14.20
2019-04-21T22:36:44.704Z,13.35
2019-04-21T22:39:27.091Z,11.65
2019-04-21T22:41:45.625Z,11.87
2019-04-21T22:44:16.951Z,15.32
2019-04-21T22:47:00.008Z,16.27
2019-04-21T22:49:22.341Z,12.03
2019-04-21T22:51:55.546Z,14.10
2019-04-21T22:54:35.464Z,14.75
2019-04-21T22:57:07.320Z,14.58
2019-04-21T22:59:34.152Z,14.03
2019-04-21T23:02:13.764Z,16.05
2019-04-21T23:04:45.253Z,13.60
2019-04-21T23:07:16.905Z,12.93
2019-04-21T23:09:45.515Z,17.87
2019-04-21T23:12:22.770Z,17.00
2019-04-21T23:15:00.897Z,20.77
2019-04-21T23:17:42.235Z,19.75
2019-04-21T23:20:17.567Z,20.73
2019-04-21T23:22:58.494Z,16.77
2019-04-21T23:25:18.708Z,13.95
2019-04-21T23:27:53.938Z,17.42
2019-04-21T23:30:33.974Z,17.37
2019-04-21T23:32:50.219Z,19.65
2019-04-21T23:35:21.778Z,17.30
2019-04-21T23:37:55.615Z,20.25
2019-04-21T23:40:22.234Z,16.35
2019-04-21T23:42:53.316Z,20.68
2019-04-21T23:45:30.497Z,18.40
2019-04-21T23:48:15.885Z,16.82
2019-04-21T23:50:43.074Z,17.23
2019-04-21T23:53:05.616Z,19.12
2019-04-21T23:55:37.105Z,20.82
2019-04-21T23:58:16.395Z,17.07
